EWG8MD EDDL-EDDB
Flight info
| Callsign | EWG8MD |
|---|---|
| Flight time | 0h 47m |
| Altitude | 35000 |
| Route | MEVEL1Z MEVEL L179 MISRI Z851 ROBEG DCT BATEL T207 OGBER OGBER1R |
| Aircraft | A320/M-SDE3FGHIRWY/LB1 |
Departure
| Time | 2026-05-06 15:06 |
|---|---|
| Airport | Düsseldorf Airport (EDDL) |
Arrival
| Time | 2026-05-06 15:54 |
|---|---|
| Airport | Berlin Brandenburg Airport (EDDB) |
| Time | Latitude | Longitude | Altitude | Speed | Heading |
|---|---|---|---|---|---|
| 2026-05-06 14:56 | 51.28029 | 6.76532 | 128 ft | 0 kts | 89° |
| 2026-05-06 14:58 | 51.28029 | 6.76527 | 128 ft | 3 kts | 89° |
| 2026-05-06 14:58 | 51.28030 | 6.76487 | 124 ft | 4 kts | 131° |
| 2026-05-06 14:58 | 51.28048 | 6.76466 | 124 ft | 4 kts | 147° |
| 2026-05-06 14:59 | 51.28070 | 6.76442 | 126 ft | 4 kts | 147° |
| 2026-05-06 14:59 | 51.28088 | 6.76423 | 124 ft | 4 kts | 146° |
| 2026-05-06 14:59 | 51.28110 | 6.76398 | 123 ft | 4 kts | 137° |
| 2026-05-06 14:59 | 51.28128 | 6.76366 | 127 ft | 4 kts | 121° |
| 2026-05-06 15:00 | 51.28140 | 6.76330 | 123 ft | 4 kts | 114° |
| 2026-05-06 15:00 | 51.28149 | 6.76290 | 123 ft | 4 kts | 98° |
| 2026-05-06 15:00 | 51.28148 | 6.76250 | 124 ft | 4 kts | 57° |
| 2026-05-06 15:00 | 51.28133 | 6.76219 | 124 ft | 4 kts | 53° |
| 2026-05-06 15:01 | 51.28119 | 6.76189 | 124 ft | 1 kts | 53° |
| 2026-05-06 15:01 | 51.28119 | 6.76188 | 124 ft | 0 kts | 53° |
| 2026-05-06 15:03 | 51.28127 | 6.76207 | 123 ft | 5 kts | 53° |
| 2026-05-06 15:03 | 51.28180 | 6.76249 | 126 ft | 12 kts | 352° |
| 2026-05-06 15:04 | 51.28184 | 6.76134 | 126 ft | 13 kts | 232° |
| 2026-05-06 15:04 | 51.28135 | 6.76035 | 126 ft | 10 kts | 232° |
| 2026-05-06 15:04 | 51.28078 | 6.75917 | 126 ft | 18 kts | 231° |
| 2026-05-06 15:04 | 51.27994 | 6.75742 | 128 ft | 20 kts | 234° |
| 2026-05-06 15:05 | 51.27951 | 6.75573 | 128 ft | 15 kts | 294° |
| 2026-05-06 15:05 | 51.28044 | 6.75497 | 123 ft | 17 kts | 347° |
| 2026-05-06 15:05 | 51.28122 | 6.75538 | 126 ft | 10 kts | 52° |
| 2026-05-06 15:05 | 51.28167 | 6.75634 | 126 ft | 15 kts | 52° |
| 2026-05-06 15:06 | 51.28359 | 6.76032 | 125 ft | 85 kts | 52° |
| 2026-05-06 15:06 | 51.28846 | 6.77048 | 126 ft | 143 kts | 53° |
| 2026-05-06 15:06 | 51.29493 | 6.78435 | 583 ft | 157 kts | 49° |
| 2026-05-06 15:06 | 51.30172 | 6.79834 | 1360 ft | 162 kts | 49° |
| 2026-05-06 15:07 | 51.30883 | 6.81267 | 2049 ft | 170 kts | 48° |
| 2026-05-06 15:07 | 51.31657 | 6.82797 | 2540 ft | 185 kts | 49° |
| 2026-05-06 15:07 | 51.32502 | 6.84509 | 2879 ft | 208 kts | 45° |
| 2026-05-06 15:07 | 51.33799 | 6.85731 | 3284 ft | 231 kts | 15° |
| 2026-05-06 15:08 | 51.35406 | 6.86519 | 3930 ft | 249 kts | 20° |
| 2026-05-06 15:08 | 51.37028 | 6.87597 | 4855 ft | 256 kts | 23° |
| 2026-05-06 15:08 | 51.38287 | 6.88510 | 5575 ft | 260 kts | 24° |
| 2026-05-06 15:08 | 51.39674 | 6.89526 | 6364 ft | 265 kts | 24° |
| 2026-05-06 15:09 | 51.41375 | 6.90756 | 7232 ft | 270 kts | 23° |
| 2026-05-06 15:09 | 51.43098 | 6.91974 | 8245 ft | 272 kts | 23° |
| 2026-05-06 15:09 | 51.44844 | 6.93185 | 9323 ft | 275 kts | 23° |
| 2026-05-06 15:09 | 51.46619 | 6.94403 | 10194 ft | 284 kts | 22° |
| 2026-05-06 15:10 | 51.48509 | 6.95696 | 10541 ft | 307 kts | 22° |
| 2026-05-06 15:10 | 51.50547 | 6.97084 | 10918 ft | 327 kts | 22° |
| 2026-05-06 15:10 | 51.52669 | 6.98524 | 11600 ft | 335 kts | 22° |
| 2026-05-06 15:10 | 51.54831 | 6.99991 | 12346 ft | 340 kts | 22° |
| 2026-05-06 15:11 | 51.57035 | 7.01488 | 13053 ft | 347 kts | 22° |
| 2026-05-06 15:11 | 51.59285 | 7.03016 | 13728 ft | 355 kts | 22° |
| 2026-05-06 15:11 | 51.61576 | 7.04574 | 14361 ft | 360 kts | 22° |
| 2026-05-06 15:11 | 51.63897 | 7.06151 | 15052 ft | 364 kts | 22° |
| 2026-05-06 15:12 | 51.66241 | 7.07744 | 15747 ft | 368 kts | 22° |
| 2026-05-06 15:12 | 51.68617 | 7.09362 | 16437 ft | 372 kts | 22° |
| 2026-05-06 15:12 | 51.71012 | 7.11003 | 17110 ft | 376 kts | 22° |
| 2026-05-06 15:12 | 51.73349 | 7.12609 | 17786 ft | 380 kts | 22° |
| 2026-05-06 15:13 | 51.75795 | 7.14291 | 18444 ft | 384 kts | 21° |
| 2026-05-06 15:13 | 51.78271 | 7.15993 | 19064 ft | 389 kts | 22° |
| 2026-05-06 15:13 | 51.80773 | 7.17713 | 19642 ft | 393 kts | 22° |
| 2026-05-06 15:13 | 51.83180 | 7.19843 | 20163 ft | 398 kts | 33° |
| 2026-05-06 15:14 | 51.85327 | 7.22710 | 20697 ft | 403 kts | 45° |
| 2026-05-06 15:14 | 51.87114 | 7.26220 | 21233 ft | 407 kts | 56° |
| 2026-05-06 15:14 | 51.88518 | 7.30218 | 21769 ft | 410 kts | 62° |
| 2026-05-06 15:14 | 51.89853 | 7.34332 | 22276 ft | 414 kts | 62° |
| 2026-05-06 15:15 | 51.91198 | 7.38473 | 22809 ft | 417 kts | 62° |
| 2026-05-06 15:15 | 51.92555 | 7.42651 | 23325 ft | 420 kts | 62° |
| 2026-05-06 15:15 | 51.93893 | 7.46875 | 23764 ft | 423 kts | 66° |
| 2026-05-06 15:15 | 51.94901 | 7.51380 | 24202 ft | 425 kts | 75° |
| 2026-05-06 15:16 | 51.95686 | 7.56013 | 24645 ft | 428 kts | 75° |
| 2026-05-06 15:16 | 51.96475 | 7.60675 | 25078 ft | 430 kts | 75° |
| 2026-05-06 15:16 | 51.97267 | 7.65361 | 25507 ft | 432 kts | 75° |
| 2026-05-06 15:16 | 51.98064 | 7.70066 | 25930 ft | 434 kts | 75° |
| 2026-05-06 15:17 | 51.98865 | 7.74798 | 26353 ft | 436 kts | 75° |
| 2026-05-06 15:17 | 51.99665 | 7.79547 | 26785 ft | 438 kts | 75° |
| 2026-05-06 15:17 | 52.00466 | 7.84329 | 27209 ft | 440 kts | 75° |
| 2026-05-06 15:17 | 52.01269 | 7.89130 | 27636 ft | 442 kts | 75° |
| 2026-05-06 15:18 | 52.02068 | 7.93955 | 28028 ft | 444 kts | 75° |
| 2026-05-06 15:18 | 52.02865 | 7.98810 | 28431 ft | 446 kts | 75° |
| 2026-05-06 15:18 | 52.03665 | 8.03687 | 28805 ft | 448 kts | 75° |
| 2026-05-06 15:18 | 52.04473 | 8.08585 | 29170 ft | 450 kts | 75° |
| 2026-05-06 15:19 | 52.05289 | 8.13510 | 29525 ft | 452 kts | 75° |
| 2026-05-06 15:19 | 52.06108 | 8.18456 | 29867 ft | 455 kts | 75° |
| 2026-05-06 15:19 | 52.06926 | 8.23433 | 30152 ft | 457 kts | 75° |
| 2026-05-06 15:19 | 52.07746 | 8.28444 | 30400 ft | 461 kts | 76° |
| 2026-05-06 15:20 | 52.08568 | 8.33487 | 30653 ft | 463 kts | 76° |
| 2026-05-06 15:20 | 52.09393 | 8.38573 | 30937 ft | 465 kts | 76° |
| 2026-05-06 15:20 | 52.10213 | 8.43650 | 31319 ft | 465 kts | 76° |
| 2026-05-06 15:20 | 52.11033 | 8.48742 | 31688 ft | 465 kts | 76° |
| 2026-05-06 15:21 | 52.11853 | 8.53839 | 31824 ft | 464 kts | 76° |
| 2026-05-06 15:21 | 52.13461 | 8.63882 | 31836 ft | 456 kts | 76° |
| 2026-05-06 15:22 | 52.15052 | 8.73870 | 31845 ft | 456 kts | 76° |
| 2026-05-06 15:22 | 52.16624 | 8.83868 | 31839 ft | 456 kts | 77° |
| 2026-05-06 15:23 | 52.18183 | 8.93881 | 31832 ft | 456 kts | 77° |
| 2026-05-06 15:23 | 52.19751 | 9.03897 | 31832 ft | 456 kts | 76° |
| 2026-05-06 15:24 | 52.21334 | 9.13913 | 31836 ft | 456 kts | 77° |
| 2026-05-06 15:24 | 52.22902 | 9.23944 | 31824 ft | 456 kts | 77° |
| 2026-05-06 15:25 | 52.24522 | 9.33954 | 31826 ft | 457 kts | 75° |
| 2026-05-06 15:25 | 52.26336 | 9.43911 | 31818 ft | 458 kts | 74° |
| 2026-05-06 15:26 | 52.28180 | 9.53861 | 31832 ft | 458 kts | 75° |
| 2026-05-06 15:26 | 52.29973 | 9.63856 | 31820 ft | 459 kts | 75° |
| 2026-05-06 15:27 | 52.31722 | 9.73880 | 31832 ft | 459 kts | 75° |
| 2026-05-06 15:27 | 52.33463 | 9.83912 | 31828 ft | 459 kts | 75° |
| 2026-05-06 15:28 | 52.35212 | 9.93942 | 31706 ft | 458 kts | 75° |
| 2026-05-06 15:28 | 52.36079 | 9.98950 | 30944 ft | 457 kts | 75° |
| 2026-05-06 15:28 | 52.36946 | 10.03961 | 30132 ft | 458 kts | 75° |
| 2026-05-06 15:28 | 52.37812 | 10.08965 | 29387 ft | 455 kts | 75° |
| 2026-05-06 15:29 | 52.38667 | 10.13924 | 28711 ft | 450 kts | 76° |
| 2026-05-06 15:29 | 52.39507 | 10.18831 | 28049 ft | 446 kts | 76° |
| 2026-05-06 15:29 | 52.40337 | 10.23700 | 27394 ft | 442 kts | 76° |
| 2026-05-06 15:29 | 52.41159 | 10.28529 | 26770 ft | 438 kts | 76° |
| 2026-05-06 15:30 | 52.41963 | 10.33265 | 26151 ft | 435 kts | 76° |
| 2026-05-06 15:30 | 52.42777 | 10.38077 | 25533 ft | 431 kts | 76° |
| 2026-05-06 15:30 | 52.43575 | 10.42795 | 24994 ft | 428 kts | 76° |
| 2026-05-06 15:30 | 52.44368 | 10.47499 | 24796 ft | 429 kts | 76° |
| 2026-05-06 15:31 | 52.45161 | 10.52212 | 24806 ft | 429 kts | 77° |
| 2026-05-06 15:31 | 52.45955 | 10.56939 | 24812 ft | 430 kts | 77° |
| 2026-05-06 15:31 | 52.46749 | 10.61673 | 24810 ft | 431 kts | 77° |
| 2026-05-06 15:32 | 52.48333 | 10.71147 | 24809 ft | 431 kts | 77° |
| 2026-05-06 15:32 | 52.49122 | 10.75896 | 24812 ft | 432 kts | 77° |
| 2026-05-06 15:32 | 52.49907 | 10.80649 | 24813 ft | 432 kts | 77° |
| 2026-05-06 15:32 | 52.50691 | 10.85416 | 24813 ft | 432 kts | 77° |
| 2026-05-06 15:33 | 52.51474 | 10.90186 | 24812 ft | 433 kts | 77° |
| 2026-05-06 15:33 | 52.52257 | 10.94962 | 24812 ft | 433 kts | 77° |
| 2026-05-06 15:33 | 52.52988 | 10.99752 | 24810 ft | 432 kts | 83° |
| 2026-05-06 15:33 | 52.53284 | 11.04608 | 24402 ft | 425 kts | 89° |
| 2026-05-06 15:34 | 52.53482 | 11.09440 | 23807 ft | 422 kts | 89° |
| 2026-05-06 15:34 | 52.53652 | 11.14231 | 23204 ft | 419 kts | 90° |
| 2026-05-06 15:34 | 52.53807 | 11.18999 | 22553 ft | 416 kts | 90° |
| 2026-05-06 15:34 | 52.53957 | 11.23722 | 21948 ft | 413 kts | 90° |
| 2026-05-06 15:35 | 52.54112 | 11.28421 | 21369 ft | 410 kts | 89° |
| 2026-05-06 15:35 | 52.54272 | 11.33080 | 20806 ft | 407 kts | 89° |
| 2026-05-06 15:35 | 52.54436 | 11.37705 | 20258 ft | 404 kts | 89° |
| 2026-05-06 15:35 | 52.54598 | 11.42301 | 19731 ft | 402 kts | 89° |
| 2026-05-06 15:36 | 52.54756 | 11.46864 | 19217 ft | 399 kts | 89° |
| 2026-05-06 15:36 | 52.54907 | 11.51398 | 18717 ft | 396 kts | 89° |
| 2026-05-06 15:36 | 52.55055 | 11.55899 | 18237 ft | 394 kts | 89° |
| 2026-05-06 15:36 | 52.55154 | 11.58866 | 17891 ft | 392 kts | 89° |
| 2026-05-06 15:37 | 52.55301 | 11.63327 | 17356 ft | 389 kts | 89° |
| 2026-05-06 15:37 | 52.55445 | 11.67752 | 16852 ft | 386 kts | 89° |
| 2026-05-06 15:37 | 52.55586 | 11.72144 | 16364 ft | 384 kts | 89° |
| 2026-05-06 15:37 | 52.55725 | 11.76508 | 15887 ft | 381 kts | 89° |
| 2026-05-06 15:38 | 52.55858 | 11.80844 | 15422 ft | 378 kts | 89° |
| 2026-05-06 15:38 | 52.55987 | 11.85142 | 14953 ft | 376 kts | 89° |
| 2026-05-06 15:38 | 52.56112 | 11.89411 | 14499 ft | 373 kts | 89° |
| 2026-05-06 15:38 | 52.56237 | 11.93652 | 14045 ft | 370 kts | 89° |
| 2026-05-06 15:39 | 52.56362 | 11.97863 | 13585 ft | 368 kts | 89° |
| 2026-05-06 15:39 | 52.56486 | 12.02049 | 13089 ft | 365 kts | 89° |
| 2026-05-06 15:39 | 52.56606 | 12.06203 | 12624 ft | 363 kts | 89° |
| 2026-05-06 15:39 | 52.56709 | 12.10338 | 12328 ft | 361 kts | 90° |
| 2026-05-06 15:40 | 52.56745 | 12.14464 | 12067 ft | 360 kts | 91° |
| 2026-05-06 15:40 | 52.56721 | 12.18576 | 11810 ft | 358 kts | 96° |
| 2026-05-06 15:40 | 52.56342 | 12.22594 | 11554 ft | 354 kts | 107° |
| 2026-05-06 15:40 | 52.55547 | 12.26391 | 11311 ft | 350 kts | 117° |
| 2026-05-06 15:41 | 52.54413 | 12.29903 | 11055 ft | 347 kts | 123° |
| 2026-05-06 15:41 | 52.53220 | 12.33338 | 10799 ft | 346 kts | 122° |
| 2026-05-06 15:41 | 52.52036 | 12.36770 | 10557 ft | 345 kts | 122° |
| 2026-05-06 15:41 | 52.50859 | 12.40197 | 10311 ft | 344 kts | 122° |
| 2026-05-06 15:42 | 52.49686 | 12.43608 | 10062 ft | 343 kts | 122° |
| 2026-05-06 15:42 | 52.48516 | 12.47003 | 9809 ft | 341 kts | 122° |
| 2026-05-06 15:42 | 52.47385 | 12.50287 | 9663 ft | 318 kts | 122° |
| 2026-05-06 15:42 | 52.46329 | 12.53352 | 9535 ft | 303 kts | 123° |
| 2026-05-06 15:43 | 52.45298 | 12.56331 | 9395 ft | 298 kts | 123° |
| 2026-05-06 15:43 | 52.44277 | 12.59266 | 9043 ft | 295 kts | 123° |
| 2026-05-06 15:43 | 52.43260 | 12.62182 | 8662 ft | 294 kts | 123° |
| 2026-05-06 15:43 | 52.42245 | 12.65082 | 8289 ft | 293 kts | 123° |
| 2026-05-06 15:44 | 52.41239 | 12.67961 | 7906 ft | 291 kts | 122° |
| 2026-05-06 15:44 | 52.40232 | 12.70832 | 7526 ft | 290 kts | 122° |
| 2026-05-06 15:44 | 52.39232 | 12.73686 | 7137 ft | 289 kts | 122° |
| 2026-05-06 15:44 | 52.38235 | 12.76532 | 6771 ft | 287 kts | 122° |
| 2026-05-06 15:45 | 52.37244 | 12.79359 | 6394 ft | 286 kts | 122° |
| 2026-05-06 15:45 | 52.36257 | 12.82173 | 5993 ft | 284 kts | 122° |
| 2026-05-06 15:45 | 52.35278 | 12.84960 | 5601 ft | 281 kts | 122° |
| 2026-05-06 15:45 | 52.34308 | 12.87716 | 5335 ft | 278 kts | 121° |
| 2026-05-06 15:46 | 52.33343 | 12.90457 | 5205 ft | 278 kts | 121° |
| 2026-05-06 15:46 | 52.32383 | 12.93187 | 5070 ft | 274 kts | 121° |
| 2026-05-06 15:46 | 52.31453 | 12.95826 | 4957 ft | 263 kts | 121° |
| 2026-05-06 15:46 | 52.30836 | 12.97576 | 4861 ft | 256 kts | 121° |
| 2026-05-06 15:47 | 52.29978 | 13.00016 | 4736 ft | 239 kts | 121° |
| 2026-05-06 15:47 | 52.29172 | 13.02297 | 4609 ft | 226 kts | 122° |
| 2026-05-06 15:47 | 52.28396 | 13.04486 | 4473 ft | 219 kts | 122° |
| 2026-05-06 15:47 | 52.27707 | 13.06667 | 4352 ft | 214 kts | 109° |
| 2026-05-06 15:48 | 52.27504 | 13.09039 | 4223 ft | 210 kts | 86° |
| 2026-05-06 15:48 | 52.27836 | 13.11289 | 4141 ft | 201 kts | 68° |
| 2026-05-06 15:48 | 52.28350 | 13.13406 | 4049 ft | 200 kts | 68° |
| 2026-05-06 15:48 | 52.28858 | 13.15503 | 3997 ft | 198 kts | 68° |
| 2026-05-06 15:49 | 52.29362 | 13.17590 | 4001 ft | 198 kts | 68° |
| 2026-05-06 15:49 | 52.29867 | 13.19685 | 3888 ft | 197 kts | 68° |
| 2026-05-06 15:49 | 52.30366 | 13.21756 | 3652 ft | 195 kts | 68° |
| 2026-05-06 15:49 | 52.30859 | 13.23804 | 3404 ft | 192 kts | 68° |
| 2026-05-06 15:50 | 52.31343 | 13.25817 | 3150 ft | 189 kts | 68° |
| 2026-05-06 15:50 | 52.31817 | 13.27788 | 2889 ft | 181 kts | 68° |
| 2026-05-06 15:50 | 52.32257 | 13.29623 | 2664 ft | 166 kts | 66° |
| 2026-05-06 15:50 | 52.32663 | 13.31318 | 2449 ft | 155 kts | 67° |
| 2026-05-06 15:51 | 52.33042 | 13.32897 | 2251 ft | 142 kts | 67° |
| 2026-05-06 15:51 | 52.33392 | 13.34358 | 2060 ft | 135 kts | 67° |
| 2026-05-06 15:51 | 52.33731 | 13.35776 | 1873 ft | 133 kts | 66° |
| 2026-05-06 15:51 | 52.34073 | 13.37170 | 1734 ft | 131 kts | 66° |
| 2026-05-06 15:52 | 52.34410 | 13.38551 | 1548 ft | 132 kts | 66° |
| 2026-05-06 15:52 | 52.34741 | 13.39944 | 1386 ft | 131 kts | 67° |
| 2026-05-06 15:52 | 52.35071 | 13.41348 | 1198 ft | 134 kts | 68° |
| 2026-05-06 15:52 | 52.35404 | 13.42782 | 974 ft | 136 kts | 67° |
| 2026-05-06 15:53 | 52.35737 | 13.44218 | 731 ft | 133 kts | 67° |
| 2026-05-06 15:53 | 52.36077 | 13.45598 | 565 ft | 128 kts | 65° |
| 2026-05-06 15:53 | 52.36398 | 13.46944 | 366 ft | 126 kts | 68° |
| 2026-05-06 15:53 | 52.36709 | 13.48255 | 219 ft | 125 kts | 68° |
| 2026-05-06 15:54 | 52.37016 | 13.49510 | 160 ft | 104 kts | 68° |
| 2026-05-06 15:54 | 52.37214 | 13.50384 | 161 ft | 56 kts | 69° |
| 2026-05-06 15:54 | 52.37300 | 13.50782 | 159 ft | 26 kts | 81° |
| 2026-05-06 15:54 | 52.37297 | 13.51075 | 159 ft | 22 kts | 98° |
| 2026-05-06 15:55 | 52.37289 | 13.51169 | 158 ft | 0 kts | 99° |
| 2026-05-06 15:56 | 52.37287 | 13.51188 | 158 ft | 7 kts | 100° |
| 2026-05-06 15:56 | 52.37277 | 13.51274 | 159 ft | 7 kts | 101° |
| 2026-05-06 15:56 | 52.37218 | 13.51301 | 159 ft | 17 kts | 207° |
| 2026-05-06 15:56 | 52.37163 | 13.51137 | 158 ft | 16 kts | 248° |
| 2026-05-06 15:57 | 52.37120 | 13.50962 | 155 ft | 17 kts | 249° |
| 2026-05-06 15:57 | 52.37080 | 13.50794 | 157 ft | 15 kts | 249° |
| 2026-05-06 15:57 | 52.37042 | 13.50640 | 157 ft | 17 kts | 248° |
| 2026-05-06 15:57 | 52.36992 | 13.50434 | 161 ft | 19 kts | 248° |
| 2026-05-06 15:58 | 52.36946 | 13.50244 | 161 ft | 18 kts | 248° |
| 2026-05-06 15:58 | 52.36870 | 13.50140 | 160 ft | 16 kts | 167° |
| 2026-05-06 15:58 | 52.36763 | 13.50189 | 156 ft | 17 kts | 180° |
| 2026-05-06 15:58 | 52.36646 | 13.50197 | 152 ft | 17 kts | 161° |
| 2026-05-06 15:59 | 52.36539 | 13.50262 | 152 ft | 16 kts | 159° |
| 2026-05-06 15:59 | 52.36442 | 13.50322 | 152 ft | 14 kts | 159° |
| 2026-05-06 15:59 | 52.36372 | 13.50367 | 152 ft | 5 kts | 159° |
| 2026-05-06 15:59 | 52.36335 | 13.50390 | 152 ft | 7 kts | 159° |
| 2026-05-06 16:00 | 52.36278 | 13.50425 | 152 ft | 11 kts | 159° |
| 2026-05-06 16:00 | 52.36220 | 13.50496 | 152 ft | 10 kts | 115° |
| 2026-05-06 16:00 | 52.36175 | 13.50578 | 152 ft | 10 kts | 155° |
| 2026-05-06 16:00 | 52.36155 | 13.50649 | 152 ft | 8 kts | 70° |
| 2026-05-06 16:01 | 52.36173 | 13.50729 | 152 ft | 8 kts | 70° |
| 2026-05-06 16:01 | 52.36176 | 13.50743 | 152 ft | 0 kts | 70° |